sensor_id;sensor_type;location;lat;lon;timestamp;P1;durP1;ratioP1;P2;durP2;ratioP2
5135;SDS011;2586;48.710;9.202;2023-02-11T00:01:09;41.83;;;20.87;;
5135;SDS011;2586;48.710;9.202;2023-02-11T00:03:37;58.70;;;21.47;;
5135;SDS011;2586;48.710;9.202;2023-02-11T00:06:04;47.67;;;23.00;;
5135;SDS011;2586;48.710;9.202;2023-02-11T00:08:33;44.10;;;21.43;;
5135;SDS011;2586;48.710;9.202;2023-02-11T00:10:59;42.03;;;20.67;;
5135;SDS011;2586;48.710;9.202;2023-02-11T00:13:25;54.93;;;22.60;;
5135;SDS011;2586;48.710;9.202;2023-02-11T00:15:50;46.97;;;20.87;;
5135;SDS011;2586;48.710;9.202;2023-02-11T00:18:16;45.53;;;21.57;;
5135;SDS011;2586;48.710;9.202;2023-02-11T00:20:42;52.53;;;23.23;;
5135;SDS011;2586;48.710;9.202;2023-02-11T00:23:08;45.57;;;21.77;;
5135;SDS011;2586;48.710;9.202;2023-02-11T00:25:37;53.70;;;21.93;;
5135;SDS011;2586;48.710;9.202;2023-02-11T00:28:03;48.17;;;22.23;;
5135;SDS011;2586;48.710;9.202;2023-02-11T00:30:29;53.23;;;22.40;;
5135;SDS011;2586;48.710;9.202;2023-02-11T00:32:54;54.93;;;20.73;;
5135;SDS011;2586;48.710;9.202;2023-02-11T00:35:20;41.37;;;20.17;;
5135;SDS011;2586;48.710;9.202;2023-02-11T00:37:46;40.73;;;21.03;;
5135;SDS011;2586;48.710;9.202;2023-02-11T00:40:11;48.00;;;21.40;;
5135;SDS011;2586;48.710;9.202;2023-02-11T00:42:39;47.93;;;21.47;;
5135;SDS011;2586;48.710;9.202;2023-02-11T00:45:06;42.40;;;20.50;;
5135;SDS011;2586;48.710;9.202;2023-02-11T00:47:33;47.40;;;21.00;;
5135;SDS011;2586;48.710;9.202;2023-02-11T00:49:59;45.83;;;21.57;;
5135;SDS011;2586;48.710;9.202;2023-02-11T00:52:25;46.97;;;23.20;;
5135;SDS011;2586;48.710;9.202;2023-02-11T00:54:51;56.90;;;22.80;;
5135;SDS011;2586;48.710;9.202;2023-02-11T00:57:16;51.30;;;21.73;;
5135;SDS011;2586;48.710;9.202;2023-02-11T00:59:42;50.90;;;23.60;;
5135;SDS011;2586;48.710;9.202;2023-02-11T01:02:07;51.40;;;20.83;;
5135;SDS011;2586;48.710;9.202;2023-02-11T01:04:33;50.17;;;21.93;;
5135;SDS011;2586;48.710;9.202;2023-02-11T01:06:58;60.80;;;23.37;;
5135;SDS011;2586;48.710;9.202;2023-02-11T01:09:24;44.40;;;20.53;;
5135;SDS011;2586;48.710;9.202;2023-02-11T01:11:50;47.80;;;20.57;;
5135;SDS011;2586;48.710;9.202;2023-02-11T01:14:15;45.40;;;21.13;;
5135;SDS011;2586;48.710;9.202;2023-02-11T01:16:41;37.43;;;18.73;;
5135;SDS011;2586;48.710;9.202;2023-02-11T01:19:06;38.93;;;19.10;;
5135;SDS011;2586;48.710;9.202;2023-02-11T01:21:32;65.17;;;22.67;;
5135;SDS011;2586;48.710;9.202;2023-02-11T01:23:57;54.40;;;24.23;;
5135;SDS011;2586;48.710;9.202;2023-02-11T01:26:23;48.70;;;21.43;;
5135;SDS011;2586;48.710;9.202;2023-02-11T01:28:49;45.93;;;22.47;;
5135;SDS011;2586;48.710;9.202;2023-02-11T01:31:14;46.17;;;23.40;;
5135;SDS011;2586;48.710;9.202;2023-02-11T01:33:40;58.00;;;23.70;;
5135;SDS011;2586;48.710;9.202;2023-02-11T01:36:06;54.03;;;26.37;;
5135;SDS011;2586;48.710;9.202;2023-02-11T01:38:32;61.83;;;26.50;;
5135;SDS011;2586;48.710;9.202;2023-02-11T01:41:01;62.43;;;25.70;;
5135;SDS011;2586;48.710;9.202;2023-02-11T01:43:33;53.03;;;23.43;;
5135;SDS011;2586;48.710;9.202;2023-02-11T01:48:54;51.33;;;22.80;;
5135;SDS011;2586;48.710;9.202;2023-02-11T01:51:29;46.83;;;22.20;;
5135;SDS011;2586;48.710;9.202;2023-02-11T01:54:01;46.77;;;22.97;;
5135;SDS011;2586;48.710;9.202;2023-02-11T01:56:48;51.73;;;21.93;;
5135;SDS011;2586;48.710;9.202;2023-02-11T01:59:37;50.00;;;21.63;;
5135;SDS011;2586;48.710;9.202;2023-02-11T02:02:12;42.23;;;20.93;;
5135;SDS011;2586;48.710;9.202;2023-02-11T02:04:45;48.30;;;22.33;;
5135;SDS011;2586;48.710;9.202;2023-02-11T02:07:34;46.57;;;23.00;;
5135;SDS011;2586;48.710;9.202;2023-02-11T02:10:17;51.93;;;21.60;;
5135;SDS011;2586;48.710;9.202;2023-02-11T02:12:46;46.07;;;23.03;;
5135;SDS011;2586;48.710;9.202;2023-02-11T02:17:47;47.17;;;21.13;;
5135;SDS011;2586;48.710;9.202;2023-02-11T02:37:41;46.93;;;20.53;;
5135;SDS011;2586;48.710;9.202;2023-02-11T02:40:20;53.87;;;21.37;;
5135;SDS011;2586;48.710;9.202;2023-02-11T02:42:49;45.90;;;22.17;;
5135;SDS011;2586;48.710;9.202;2023-02-11T02:45:17;46.30;;;21.90;;
5135;SDS011;2586;48.710;9.202;2023-02-11T02:47:43;45.43;;;22.37;;
5135;SDS011;2586;48.710;9.202;2023-02-11T02:50:09;47.57;;;22.83;;
5135;SDS011;2586;48.710;9.202;2023-02-11T02:55:32;57.77;;;22.27;;
5135;SDS011;2586;48.710;9.202;2023-02-11T03:00:45;56.40;;;24.13;;
5135;SDS011;2586;48.710;9.202;2023-02-11T03:06:10;44.60;;;21.63;;
5135;SDS011;2586;48.710;9.202;2023-02-11T03:08:56;52.63;;;24.50;;
5135;SDS011;2586;48.710;9.202;2023-02-11T03:11:23;50.27;;;24.03;;
5135;SDS011;2586;48.710;9.202;2023-02-11T03:13:50;55.83;;;24.13;;
5135;SDS011;2586;48.710;9.202;2023-02-11T03:16:21;43.80;;;21.57;;
5135;SDS011;2586;48.710;9.202;2023-02-11T03:18:52;60.50;;;23.40;;
5135;SDS011;2586;48.710;9.202;2023-02-11T03:21:29;48.80;;;20.87;;
5135;SDS011;2586;48.710;9.202;2023-02-11T03:23:59;53.37;;;23.87;;
5135;SDS011;2586;48.710;9.202;2023-02-11T03:26:37;52.33;;;23.50;;
5135;SDS011;2586;48.710;9.202;2023-02-11T03:29:14;50.00;;;20.93;;
5135;SDS011;2586;48.710;9.202;2023-02-11T03:31:50;52.03;;;21.00;;
5135;SDS011;2586;48.710;9.202;2023-02-11T03:34:31;45.33;;;22.77;;
5135;SDS011;2586;48.710;9.202;2023-02-11T03:37:02;47.40;;;22.10;;
5135;SDS011;2586;48.710;9.202;2023-02-11T03:39:36;55.93;;;21.97;;
5135;SDS011;2586;48.710;9.202;2023-02-11T03:42:05;48.67;;;22.90;;
5135;SDS011;2586;48.710;9.202;2023-02-11T03:44:34;50.07;;;21.27;;
5135;SDS011;2586;48.710;9.202;2023-02-11T03:47:04;42.67;;;22.07;;
5135;SDS011;2586;48.710;9.202;2023-02-11T03:49:33;48.20;;;22.70;;
5135;SDS011;2586;48.710;9.202;2023-02-11T03:52:00;47.93;;;22.07;;
5135;SDS011;2586;48.710;9.202;2023-02-11T03:54:29;47.73;;;23.20;;
5135;SDS011;2586;48.710;9.202;2023-02-11T03:56:57;49.90;;;21.37;;
5135;SDS011;2586;48.710;9.202;2023-02-11T03:59:24;49.43;;;22.60;;
5135;SDS011;2586;48.710;9.202;2023-02-11T04:01:50;40.27;;;19.53;;
5135;SDS011;2586;48.710;9.202;2023-02-11T04:04:16;41.90;;;20.73;;
5135;SDS011;2586;48.710;9.202;2023-02-11T04:06:42;46.63;;;21.83;;
5135;SDS011;2586;48.710;9.202;2023-02-11T04:09:08;47.90;;;23.90;;
5135;SDS011;2586;48.710;9.202;2023-02-11T04:11:35;45.83;;;23.80;;
5135;SDS011;2586;48.710;9.202;2023-02-11T04:14:00;43.00;;;22.87;;
5135;SDS011;2586;48.710;9.202;2023-02-11T04:16:26;50.90;;;23.30;;
5135;SDS011;2586;48.710;9.202;2023-02-11T04:18:52;51.07;;;22.30;;
5135;SDS011;2586;48.710;9.202;2023-02-11T04:21:17;44.63;;;21.83;;
5135;SDS011;2586;48.710;9.202;2023-02-11T04:23:43;57.43;;;22.60;;
5135;SDS011;2586;48.710;9.202;2023-02-11T04:26:08;50.83;;;22.77;;
5135;SDS011;2586;48.710;9.202;2023-02-11T04:28:34;55.30;;;23.33;;
5135;SDS011;2586;48.710;9.202;2023-02-11T04:31:00;43.13;;;21.40;;
5135;SDS011;2586;48.710;9.202;2023-02-11T04:33:26;44.03;;;21.00;;
5135;SDS011;2586;48.710;9.202;2023-02-11T04:35:51;43.53;;;21.97;;
5135;SDS011;2586;48.710;9.202;2023-02-11T04:38:17;46.47;;;21.00;;
5135;SDS011;2586;48.710;9.202;2023-02-11T04:40:43;53.03;;;20.43;;
5135;SDS011;2586;48.710;9.202;2023-02-11T04:43:08;37.43;;;20.23;;
5135;SDS011;2586;48.710;9.202;2023-02-11T04:45:34;44.97;;;19.90;;
5135;SDS011;2586;48.710;9.202;2023-02-11T04:48:02;43.53;;;21.30;;
5135;SDS011;2586;48.710;9.202;2023-02-11T04:50:28;46.40;;;20.70;;
5135;SDS011;2586;48.710;9.202;2023-02-11T04:52:53;53.57;;;22.10;;
5135;SDS011;2586;48.710;9.202;2023-02-11T04:55:19;45.23;;;22.13;;
5135;SDS011;2586;48.710;9.202;2023-02-11T04:57:45;49.37;;;21.70;;
5135;SDS011;2586;48.710;9.202;2023-02-11T05:00:10;47.27;;;21.27;;
5135;SDS011;2586;48.710;9.202;2023-02-11T05:02:36;41.93;;;20.93;;
5135;SDS011;2586;48.710;9.202;2023-02-11T05:05:02;51.13;;;23.97;;
5135;SDS011;2586;48.710;9.202;2023-02-11T05:07:28;46.10;;;23.77;;
5135;SDS011;2586;48.710;9.202;2023-02-11T05:09:53;55.67;;;22.57;;
5135;SDS011;2586;48.710;9.202;2023-02-11T05:12:19;49.60;;;21.93;;
5135;SDS011;2586;48.710;9.202;2023-02-11T05:14:45;39.90;;;22.17;;
5135;SDS011;2586;48.710;9.202;2023-02-11T05:17:11;43.73;;;21.33;;
5135;SDS011;2586;48.710;9.202;2023-02-11T05:19:36;48.83;;;22.37;;
5135;SDS011;2586;48.710;9.202;2023-02-11T05:22:02;40.70;;;20.97;;
5135;SDS011;2586;48.710;9.202;2023-02-11T05:24:28;48.47;;;22.43;;
5135;SDS011;2586;48.710;9.202;2023-02-11T05:26:55;54.90;;;23.20;;
5135;SDS011;2586;48.710;9.202;2023-02-11T05:29:21;54.60;;;23.20;;
5135;SDS011;2586;48.710;9.202;2023-02-11T05:31:46;44.83;;;22.60;;
5135;SDS011;2586;48.710;9.202;2023-02-11T05:34:12;47.13;;;22.73;;
5135;SDS011;2586;48.710;9.202;2023-02-11T05:36:37;52.10;;;22.50;;
5135;SDS011;2586;48.710;9.202;2023-02-11T05:39:03;45.47;;;20.70;;
5135;SDS011;2586;48.710;9.202;2023-02-11T05:41:29;45.53;;;24.60;;
5135;SDS011;2586;48.710;9.202;2023-02-11T05:43:54;45.20;;;22.53;;
5135;SDS011;2586;48.710;9.202;2023-02-11T05:46:20;50.07;;;24.50;;
5135;SDS011;2586;48.710;9.202;2023-02-11T05:48:45;41.33;;;21.00;;
5135;SDS011;2586;48.710;9.202;2023-02-11T05:51:11;57.27;;;24.57;;
5135;SDS011;2586;48.710;9.202;2023-02-11T05:53:36;60.90;;;23.87;;
5135;SDS011;2586;48.710;9.202;2023-02-11T05:56:02;51.97;;;21.80;;
5135;SDS011;2586;48.710;9.202;2023-02-11T05:58:27;50.20;;;21.33;;
5135;SDS011;2586;48.710;9.202;2023-02-11T06:00:53;55.97;;;22.63;;
5135;SDS011;2586;48.710;9.202;2023-02-11T06:03:19;43.17;;;22.73;;
5135;SDS011;2586;48.710;9.202;2023-02-11T06:05:44;49.40;;;20.97;;
5135;SDS011;2586;48.710;9.202;2023-02-11T06:08:10;45.83;;;21.17;;
5135;SDS011;2586;48.710;9.202;2023-02-11T06:10:36;42.63;;;20.87;;
5135;SDS011;2586;48.710;9.202;2023-02-11T06:13:02;40.33;;;21.40;;
5135;SDS011;2586;48.710;9.202;2023-02-11T06:15:27;38.60;;;21.57;;
5135;SDS011;2586;48.710;9.202;2023-02-11T06:17:53;46.40;;;21.90;;
5135;SDS011;2586;48.710;9.202;2023-02-11T06:20:19;47.13;;;20.60;;
5135;SDS011;2586;48.710;9.202;2023-02-11T06:22:44;46.13;;;21.40;;
5135;SDS011;2586;48.710;9.202;2023-02-11T06:25:10;44.63;;;23.03;;
5135;SDS011;2586;48.710;9.202;2023-02-11T06:27:37;40.50;;;21.40;;
5135;SDS011;2586;48.710;9.202;2023-02-11T06:30:03;43.00;;;22.03;;
5135;SDS011;2586;48.710;9.202;2023-02-11T06:32:30;41.50;;;19.37;;
5135;SDS011;2586;48.710;9.202;2023-02-11T06:34:56;50.90;;;23.43;;
5135;SDS011;2586;48.710;9.202;2023-02-11T06:37:21;39.80;;;21.27;;
5135;SDS011;2586;48.710;9.202;2023-02-11T06:39:47;49.10;;;21.47;;
5135;SDS011;2586;48.710;9.202;2023-02-11T06:42:13;49.27;;;24.60;;
5135;SDS011;2586;48.710;9.202;2023-02-11T06:44:38;42.07;;;22.27;;
5135;SDS011;2586;48.710;9.202;2023-02-11T06:47:04;50.37;;;24.47;;
5135;SDS011;2586;48.710;9.202;2023-02-11T06:49:29;52.47;;;24.47;;
5135;SDS011;2586;48.710;9.202;2023-02-11T06:51:55;47.63;;;23.57;;
5135;SDS011;2586;48.710;9.202;2023-02-11T06:54:20;44.57;;;22.03;;
5135;SDS011;2586;48.710;9.202;2023-02-11T06:56:46;53.90;;;23.57;;
5135;SDS011;2586;48.710;9.202;2023-02-11T06:59:15;48.47;;;20.77;;
5135;SDS011;2586;48.710;9.202;2023-02-11T07:01:42;46.60;;;21.07;;
5135;SDS011;2586;48.710;9.202;2023-02-11T07:04:08;45.70;;;19.50;;
5135;SDS011;2586;48.710;9.202;2023-02-11T07:06:33;48.43;;;23.00;;
5135;SDS011;2586;48.710;9.202;2023-02-11T07:09:01;44.67;;;22.23;;
5135;SDS011;2586;48.710;9.202;2023-02-11T07:11:28;44.67;;;20.67;;
5135;SDS011;2586;48.710;9.202;2023-02-11T07:13:55;44.57;;;21.40;;
5135;SDS011;2586;48.710;9.202;2023-02-11T07:16:24;42.03;;;21.27;;
5135;SDS011;2586;48.710;9.202;2023-02-11T07:18:50;44.10;;;21.33;;
5135;SDS011;2586;48.710;9.202;2023-02-11T07:21:17;40.80;;;21.20;;
5135;SDS011;2586;48.710;9.202;2023-02-11T07:23:45;43.33;;;19.57;;
5135;SDS011;2586;48.710;9.202;2023-02-11T07:26:14;44.63;;;20.83;;
5135;SDS011;2586;48.710;9.202;2023-02-11T07:28:41;37.87;;;20.30;;
5135;SDS011;2586;48.710;9.202;2023-02-11T07:33:37;48.50;;;21.17;;
5135;SDS011;2586;48.710;9.202;2023-02-11T07:36:03;37.83;;;19.33;;
5135;SDS011;2586;48.710;9.202;2023-02-11T07:38:30;46.33;;;20.43;;
5135;SDS011;2586;48.710;9.202;2023-02-11T07:41:00;43.10;;;23.00;;
5135;SDS011;2586;48.710;9.202;2023-02-11T07:43:31;40.50;;;20.40;;
5135;SDS011;2586;48.710;9.202;2023-02-11T07:45:57;44.90;;;22.47;;
5135;SDS011;2586;48.710;9.202;2023-02-11T07:48:23;37.00;;;20.40;;
5135;SDS011;2586;48.710;9.202;2023-02-11T07:50:49;36.90;;;19.77;;
5135;SDS011;2586;48.710;9.202;2023-02-11T07:53:15;34.83;;;18.63;;
5135;SDS011;2586;48.710;9.202;2023-02-11T07:55:44;38.70;;;19.83;;
5135;SDS011;2586;48.710;9.202;2023-02-11T07:58:09;44.23;;;20.63;;
5135;SDS011;2586;48.710;9.202;2023-02-11T08:00:35;38.57;;;19.30;;
5135;SDS011;2586;48.710;9.202;2023-02-11T08:03:00;35.40;;;19.57;;
5135;SDS011;2586;48.710;9.202;2023-02-11T08:05:26;42.20;;;20.67;;
5135;SDS011;2586;48.710;9.202;2023-02-11T08:07:52;36.10;;;20.93;;
5135;SDS011;2586;48.710;9.202;2023-02-11T08:10:19;44.80;;;20.07;;
5135;SDS011;2586;48.710;9.202;2023-02-11T08:12:45;49.87;;;21.90;;
5135;SDS011;2586;48.710;9.202;2023-02-11T08:15:11;46.17;;;20.90;;
5135;SDS011;2586;48.710;9.202;2023-02-11T08:17:37;40.10;;;21.83;;
5135;SDS011;2586;48.710;9.202;2023-02-11T08:20:03;45.03;;;21.50;;
5135;SDS011;2586;48.710;9.202;2023-02-11T08:22:30;42.47;;;20.37;;
5135;SDS011;2586;48.710;9.202;2023-02-11T08:24:57;39.67;;;21.53;;
5135;SDS011;2586;48.710;9.202;2023-02-11T08:27:23;47.20;;;22.40;;
5135;SDS011;2586;48.710;9.202;2023-02-11T08:29:50;43.80;;;21.97;;
5135;SDS011;2586;48.710;9.202;2023-02-11T08:32:16;44.03;;;20.93;;
5135;SDS011;2586;48.710;9.202;2023-02-11T08:34:42;35.53;;;19.77;;
5135;SDS011;2586;48.710;9.202;2023-02-11T08:37:08;40.33;;;19.33;;
5135;SDS011;2586;48.710;9.202;2023-02-11T08:39:33;33.77;;;19.10;;
5135;SDS011;2586;48.710;9.202;2023-02-11T08:41:59;30.27;;;18.07;;
5135;SDS011;2586;48.710;9.202;2023-02-11T08:44:24;33.60;;;17.97;;
5135;SDS011;2586;48.710;9.202;2023-02-11T08:46:50;37.73;;;20.07;;
5135;SDS011;2586;48.710;9.202;2023-02-11T08:49:16;36.00;;;19.60;;
5135;SDS011;2586;48.710;9.202;2023-02-11T08:51:42;34.03;;;17.67;;
5135;SDS011;2586;48.710;9.202;2023-02-11T08:54:08;37.13;;;17.50;;
5135;SDS011;2586;48.710;9.202;2023-02-11T08:56:34;42.00;;;18.63;;
5135;SDS011;2586;48.710;9.202;2023-02-11T08:59:01;33.97;;;18.60;;
5135;SDS011;2586;48.710;9.202;2023-02-11T09:01:27;34.97;;;17.53;;
5135;SDS011;2586;48.710;9.202;2023-02-11T09:03:54;36.50;;;19.37;;
5135;SDS011;2586;48.710;9.202;2023-02-11T09:06:21;34.50;;;19.03;;
5135;SDS011;2586;48.710;9.202;2023-02-11T09:08:48;46.90;;;21.23;;
5135;SDS011;2586;48.710;9.202;2023-02-11T09:11:16;44.33;;;22.17;;
5135;SDS011;2586;48.710;9.202;2023-02-11T09:13:46;37.17;;;18.27;;
5135;SDS011;2586;48.710;9.202;2023-02-11T09:16:19;31.73;;;19.27;;
5135;SDS011;2586;48.710;9.202;2023-02-11T09:18:46;32.10;;;19.17;;
5135;SDS011;2586;48.710;9.202;2023-02-11T09:21:12;29.07;;;18.87;;
5135;SDS011;2586;48.710;9.202;2023-02-11T09:23:39;37.97;;;19.83;;
5135;SDS011;2586;48.710;9.202;2023-02-11T09:26:08;41.87;;;21.73;;
5135;SDS011;2586;48.710;9.202;2023-02-11T09:28:36;44.00;;;21.27;;
5135;SDS011;2586;48.710;9.202;2023-02-11T09:31:05;35.77;;;22.50;;
5135;SDS011;2586;48.710;9.202;2023-02-11T09:33:36;41.43;;;22.30;;
5135;SDS011;2586;48.710;9.202;2023-02-11T09:36:03;36.90;;;19.20;;
5135;SDS011;2586;48.710;9.202;2023-02-11T09:38:30;36.70;;;20.90;;
5135;SDS011;2586;48.710;9.202;2023-02-11T09:40:56;39.90;;;20.33;;
5135;SDS011;2586;48.710;9.202;2023-02-11T09:43:30;33.07;;;19.83;;
5135;SDS011;2586;48.710;9.202;2023-02-11T09:46:01;31.33;;;18.67;;
5135;SDS011;2586;48.710;9.202;2023-02-11T09:48:29;35.50;;;21.63;;
5135;SDS011;2586;48.710;9.202;2023-02-11T09:51:05;32.10;;;18.70;;
5135;SDS011;2586;48.710;9.202;2023-02-11T09:53:43;32.30;;;17.17;;
5135;SDS011;2586;48.710;9.202;2023-02-11T09:56:12;32.77;;;19.53;;
5135;SDS011;2586;48.710;9.202;2023-02-11T09:58:40;34.33;;;19.60;;
5135;SDS011;2586;48.710;9.202;2023-02-11T10:06:39;34.03;;;16.53;;
5135;SDS011;2586;48.710;9.202;2023-02-11T10:17:37;21.67;;;14.93;;
5135;SDS011;2586;48.710;9.202;2023-02-11T10:23:08;28.67;;;16.70;;
5135;SDS011;2586;48.710;9.202;2023-02-11T10:25:41;23.60;;;14.27;;
5135;SDS011;2586;48.710;9.202;2023-02-11T10:28:13;22.97;;;13.60;;
5135;SDS011;2586;48.710;9.202;2023-02-11T10:30:59;23.37;;;16.00;;
5135;SDS011;2586;48.710;9.202;2023-02-11T10:33:36;24.10;;;13.40;;
5135;SDS011;2586;48.710;9.202;2023-02-11T10:36:18;22.20;;;14.43;;
5135;SDS011;2586;48.710;9.202;2023-02-11T10:38:47;24.17;;;13.40;;
5135;SDS011;2586;48.710;9.202;2023-02-11T10:41:16;17.83;;;11.20;;
5135;SDS011;2586;48.710;9.202;2023-02-11T10:43:48;21.53;;;11.87;;
5135;SDS011;2586;48.710;9.202;2023-02-11T10:46:21;18.47;;;12.03;;
5135;SDS011;2586;48.710;9.202;2023-02-11T10:48:53;15.57;;;10.10;;
5135;SDS011;2586;48.710;9.202;2023-02-11T10:51:20;18.83;;;10.37;;
5135;SDS011;2586;48.710;9.202;2023-02-11T10:56:28;18.63;;;11.37;;
5135;SDS011;2586;48.710;9.202;2023-02-11T10:58:57;17.77;;;10.73;;
5135;SDS011;2586;48.710;9.202;2023-02-11T11:01:37;17.40;;;10.87;;
5135;SDS011;2586;48.710;9.202;2023-02-11T11:06:55;20.03;;;9.87;;
5135;SDS011;2586;48.710;9.202;2023-02-11T11:09:26;19.73;;;11.20;;
5135;SDS011;2586;48.710;9.202;2023-02-11T11:11:54;19.57;;;10.57;;
5135;SDS011;2586;48.710;9.202;2023-02-11T11:14:20;16.47;;;9.50;;
5135;SDS011;2586;48.710;9.202;2023-02-11T11:16:53;12.10;;;8.77;;
5135;SDS011;2586;48.710;9.202;2023-02-11T11:19:23;13.30;;;9.77;;
5135;SDS011;2586;48.710;9.202;2023-02-11T11:21:50;18.13;;;10.93;;
5135;SDS011;2586;48.710;9.202;2023-02-11T11:26:48;11.97;;;8.23;;
5135;SDS011;2586;48.710;9.202;2023-02-11T11:29:19;16.87;;;10.20;;
5135;SDS011;2586;48.710;9.202;2023-02-11T11:31:55;16.07;;;9.30;;
5135;SDS011;2586;48.710;9.202;2023-02-11T11:34:39;18.43;;;10.57;;
5135;SDS011;2586;48.710;9.202;2023-02-11T11:37:10;17.53;;;10.10;;
5135;SDS011;2586;48.710;9.202;2023-02-11T11:42:37;18.20;;;10.20;;
5135;SDS011;2586;48.710;9.202;2023-02-11T11:47:57;14.33;;;9.97;;
5135;SDS011;2586;48.710;9.202;2023-02-11T11:55:54;12.07;;;8.47;;
5135;SDS011;2586;48.710;9.202;2023-02-11T11:58:26;12.97;;;9.57;;
5135;SDS011;2586;48.710;9.202;2023-02-11T12:04:02;9.90;;;8.50;;
5135;SDS011;2586;48.710;9.202;2023-02-11T12:12:53;14.80;;;10.00;;
5135;SDS011;2586;48.710;9.202;2023-02-11T12:26:46;19.23;;;8.07;;
5135;SDS011;2586;48.710;9.202;2023-02-11T12:32:14;17.63;;;9.13;;
5135;SDS011;2586;48.710;9.202;2023-02-11T12:34:52;11.33;;;7.03;;
5135;SDS011;2586;48.710;9.202;2023-02-11T12:40:40;18.33;;;11.97;;
5135;SDS011;2586;48.710;9.202;2023-02-11T12:43:23;16.50;;;10.73;;
5135;SDS011;2586;48.710;9.202;2023-02-11T12:46:06;18.70;;;11.37;;
5135;SDS011;2586;48.710;9.202;2023-02-11T12:54:11;23.80;;;12.23;;
5135;SDS011;2586;48.710;9.202;2023-02-11T12:59:32;20.37;;;12.87;;
5135;SDS011;2586;48.710;9.202;2023-02-11T13:02:05;15.97;;;11.97;;
5135;SDS011;2586;48.710;9.202;2023-02-11T13:04:49;18.33;;;13.27;;
5135;SDS011;2586;48.710;9.202;2023-02-11T13:07:23;14.00;;;11.33;;
5135;SDS011;2586;48.710;9.202;2023-02-11T13:09:54;13.27;;;10.00;;
5135;SDS011;2586;48.710;9.202;2023-02-11T13:12:21;23.80;;;11.17;;
5135;SDS011;2586;48.710;9.202;2023-02-11T13:15:08;13.00;;;8.60;;
5135;SDS011;2586;48.710;9.202;2023-02-11T13:17:47;11.60;;;9.27;;
5135;SDS011;2586;48.710;9.202;2023-02-11T13:20:39;13.13;;;7.60;;
5135;SDS011;2586;48.710;9.202;2023-02-11T13:23:25;9.27;;;7.10;;
5135;SDS011;2586;48.710;9.202;2023-02-11T13:26:09;10.10;;;6.70;;
5135;SDS011;2586;48.710;9.202;2023-02-11T13:28:39;10.87;;;7.50;;
5135;SDS011;2586;48.710;9.202;2023-02-11T13:31:27;9.57;;;6.80;;
5135;SDS011;2586;48.710;9.202;2023-02-11T13:33:53;8.90;;;6.50;;
5135;SDS011;2586;48.710;9.202;2023-02-11T13:36:28;20.80;;;7.30;;
5135;SDS011;2586;48.710;9.202;2023-02-11T13:38:57;8.83;;;6.70;;
5135;SDS011;2586;48.710;9.202;2023-02-11T13:41:29;7.27;;;6.53;;
5135;SDS011;2586;48.710;9.202;2023-02-11T13:44:01;11.50;;;6.90;;
5135;SDS011;2586;48.710;9.202;2023-02-11T13:46:53;15.83;;;6.73;;
5135;SDS011;2586;48.710;9.202;2023-02-11T13:49:21;9.50;;;5.60;;
5135;SDS011;2586;48.710;9.202;2023-02-11T13:51:49;8.73;;;6.60;;
5135;SDS011;2586;48.710;9.202;2023-02-11T13:54:27;12.07;;;6.57;;
5135;SDS011;2586;48.710;9.202;2023-02-11T14:02:19;12.30;;;7.17;;
5135;SDS011;2586;48.710;9.202;2023-02-11T14:10:53;10.57;;;7.13;;
5135;SDS011;2586;48.710;9.202;2023-02-11T14:16:08;11.27;;;7.40;;
5135;SDS011;2586;48.710;9.202;2023-02-11T14:21:11;7.63;;;6.30;;
5135;SDS011;2586;48.710;9.202;2023-02-11T14:23:39;14.87;;;7.00;;
5135;SDS011;2586;48.710;9.202;2023-02-11T14:29:12;11.87;;;7.50;;
5135;SDS011;2586;48.710;9.202;2023-02-11T14:31:44;12.63;;;8.70;;
5135;SDS011;2586;48.710;9.202;2023-02-11T14:37:32;14.03;;;9.03;;
5135;SDS011;2586;48.710;9.202;2023-02-11T14:42:40;14.70;;;10.70;;
5135;SDS011;2586;48.710;9.202;2023-02-11T14:45:06;15.57;;;10.37;;
5135;SDS011;2586;48.710;9.202;2023-02-11T14:50:27;20.47;;;12.10;;
5135;SDS011;2586;48.710;9.202;2023-02-11T14:52:59;19.43;;;10.80;;
5135;SDS011;2586;48.710;9.202;2023-02-11T14:55:33;16.00;;;11.70;;
5135;SDS011;2586;48.710;9.202;2023-02-11T15:00:30;22.33;;;11.80;;
5135;SDS011;2586;48.710;9.202;2023-02-11T15:02:55;22.37;;;12.47;;
5135;SDS011;2586;48.710;9.202;2023-02-11T15:05:23;24.83;;;12.03;;
5135;SDS011;2586;48.710;9.202;2023-02-11T15:07:51;20.43;;;11.90;;
5135;SDS011;2586;48.710;9.202;2023-02-11T15:10:30;16.60;;;11.00;;
5135;SDS011;2586;48.710;9.202;2023-02-11T15:12:56;24.17;;;12.50;;
5135;SDS011;2586;48.710;9.202;2023-02-11T15:15:25;20.60;;;10.47;;
5135;SDS011;2586;48.710;9.202;2023-02-11T15:17:52;19.93;;;10.90;;
5135;SDS011;2586;48.710;9.202;2023-02-11T15:20:21;19.87;;;11.57;;
5135;SDS011;2586;48.710;9.202;2023-02-11T15:22:54;17.80;;;11.10;;
5135;SDS011;2586;48.710;9.202;2023-02-11T15:25:27;17.50;;;10.70;;
5135;SDS011;2586;48.710;9.202;2023-02-11T15:27:54;20.77;;;11.50;;
5135;SDS011;2586;48.710;9.202;2023-02-11T15:32:56;15.23;;;11.07;;
5135;SDS011;2586;48.710;9.202;2023-02-11T15:35:31;17.87;;;10.87;;
5135;SDS011;2586;48.710;9.202;2023-02-11T15:37:59;18.67;;;11.90;;
5135;SDS011;2586;48.710;9.202;2023-02-11T15:40:26;15.50;;;10.30;;
5135;SDS011;2586;48.710;9.202;2023-02-11T15:42:59;15.23;;;10.37;;
5135;SDS011;2586;48.710;9.202;2023-02-11T15:45:31;22.63;;;11.53;;
5135;SDS011;2586;48.710;9.202;2023-02-11T15:50:42;19.63;;;12.67;;
5135;SDS011;2586;48.710;9.202;2023-02-11T15:53:19;21.00;;;13.40;;
5135;SDS011;2586;48.710;9.202;2023-02-11T15:55:45;20.80;;;11.93;;
5135;SDS011;2586;48.710;9.202;2023-02-11T15:58:11;16.83;;;12.23;;
5135;SDS011;2586;48.710;9.202;2023-02-11T16:00:45;20.07;;;12.20;;
5135;SDS011;2586;48.710;9.202;2023-02-11T16:03:23;20.37;;;12.63;;
5135;SDS011;2586;48.710;9.202;2023-02-11T16:05:52;19.73;;;12.40;;
5135;SDS011;2586;48.710;9.202;2023-02-11T16:08:26;20.10;;;11.63;;
5135;SDS011;2586;48.710;9.202;2023-02-11T16:10:57;18.63;;;11.90;;
5135;SDS011;2586;48.710;9.202;2023-02-11T16:13:27;25.77;;;13.97;;
5135;SDS011;2586;48.710;9.202;2023-02-11T16:16:01;22.17;;;12.60;;
5135;SDS011;2586;48.710;9.202;2023-02-11T16:18:36;23.13;;;13.27;;
5135;SDS011;2586;48.710;9.202;2023-02-11T16:21:03;22.03;;;13.20;;
5135;SDS011;2586;48.710;9.202;2023-02-11T16:23:31;27.77;;;12.00;;
5135;SDS011;2586;48.710;9.202;2023-02-11T16:26:04;20.43;;;12.50;;
5135;SDS011;2586;48.710;9.202;2023-02-11T16:28:35;22.57;;;13.97;;
5135;SDS011;2586;48.710;9.202;2023-02-11T16:31:01;17.43;;;11.80;;
5135;SDS011;2586;48.710;9.202;2023-02-11T16:33:27;22.20;;;13.63;;
5135;SDS011;2586;48.710;9.202;2023-02-11T16:35:53;25.20;;;15.83;;
5135;SDS011;2586;48.710;9.202;2023-02-11T16:38:19;21.97;;;12.73;;
5135;SDS011;2586;48.710;9.202;2023-02-11T16:40:45;26.23;;;14.20;;
5135;SDS011;2586;48.710;9.202;2023-02-11T16:43:13;25.00;;;14.13;;
5135;SDS011;2586;48.710;9.202;2023-02-11T16:45:41;20.60;;;13.20;;
5135;SDS011;2586;48.710;9.202;2023-02-11T16:48:08;27.80;;;14.90;;
5135;SDS011;2586;48.710;9.202;2023-02-11T16:50:36;20.30;;;13.40;;
5135;SDS011;2586;48.710;9.202;2023-02-11T16:53:04;20.47;;;13.77;;
5135;SDS011;2586;48.710;9.202;2023-02-11T16:55:31;21.40;;;13.83;;
5135;SDS011;2586;48.710;9.202;2023-02-11T16:57:57;21.80;;;13.77;;
5135;SDS011;2586;48.710;9.202;2023-02-11T17:00:23;27.37;;;14.27;;
5135;SDS011;2586;48.710;9.202;2023-02-11T17:02:49;24.13;;;14.20;;
5135;SDS011;2586;48.710;9.202;2023-02-11T17:05:15;32.10;;;15.00;;
5135;SDS011;2586;48.710;9.202;2023-02-11T17:07:43;24.60;;;14.73;;
5135;SDS011;2586;48.710;9.202;2023-02-11T17:10:16;21.70;;;14.20;;
5135;SDS011;2586;48.710;9.202;2023-02-11T17:12:44;28.87;;;15.83;;
5135;SDS011;2586;48.710;9.202;2023-02-11T17:15:10;27.93;;;14.00;;
5135;SDS011;2586;48.710;9.202;2023-02-11T17:17:35;32.20;;;13.63;;
5135;SDS011;2586;48.710;9.202;2023-02-11T17:20:01;25.77;;;14.90;;
5135;SDS011;2586;48.710;9.202;2023-02-11T17:22:27;22.00;;;13.10;;